Nearby METAR Reports

 

KCMH - Columbus, Ohio, USA
Distance from station: SW 5mi, 8km
Updated: Thu, 09-Apr-2020 6:51pm EDT
Mostly cloudy
Mostly cloudy
 Wind from NNW
Wind: NNW 20 mph , 31 km/h, Gust: 32 mph , 52 km/h
Temperature: 45°F , 7°C
Wind Chill: 37°F , 3°C
Dew Point: 25°F , -4°C
Humidity: 46%
Barometer: 29.68 inHg , 1005.1 hPa
Clouds: Mostly cloudy
Visibility: 10 miles , 16 km
Cloud details: Few Clouds 7000 ft
Mostly cloudy 8500 ft
2020/04/09 22:51 KCMH 092251Z 33017G28KT 10SM FEW070 BKN085 07/M04 A2968 RMK AO2 PK WND 30039/2206 SLP053 T00721044
KOSU - Columbus/St Univ, Ohio, USA
Distance from station: W 14mi, 23km
Updated: Thu, 09-Apr-2020 6:53pm EDT
Partly cloudy
Partly cloudy
 Wind from NW
Wind: NW 15 mph , 24 km/h
Temperature: 45°F , 7°C
Wind Chill: 38°F , 3°C
Dew Point: 25°F , -4°C
Humidity: 46%
Barometer: 29.69 inHg , 1005.4 hPa
Clouds: Partly cloudy
Visibility: 10 miles , 16 km
Cloud details: Partly cloudy 8000 ft
Partly cloudy 10000 ft
2020/04/09 22:53 KOSU 092253Z 32013KT 10SM SCT080 SCT100 07/M04 A2969 RMK AO2 PK WND 30034/2157 SLP055 T00671039
 
KLCK - Rickenbacker Ang, Ohio, USA
Distance from station: SSW 17mi, 27km
Updated: Thu, 09-Apr-2020 6:55pm EDT
Mostly cloudy
Mostly cloudy
 Wind from WNW
Wind: WNW 24 mph , 39 km/h, Gust: 30 mph , 48 km/h
Temperature: 48°F , 9°C
Wind Chill: 40°F , 4°C
Dew Point: 23°F , -5°C
Humidity: 37%
Barometer: 29.69 inHg , 1005.4 hPa
Clouds: Mostly cloudy
Visibility: 10 miles , 16 km
Cloud details: Partly cloudy 7500 ft
Mostly cloudy 8500 ft
2020/04/09 22:55 KLCK 092255Z AUTO 29021G26KT 10SM SCT075 BKN085 09/M05 A2969 RMK AO2 T00851055
KVTA - Newark, Ohio, USA
Distance from station: E 19mi, 30km
Updated: Thu, 09-Apr-2020 6:54pm EDT
Mostly cloudy
Mostly cloudy
 Wind from WNW
Wind: WNW 20 mph , 31 km/h, Gust: 25 mph , 41 km/h
Temperature: 46°F , 8°C
Wind Chill: 38°F , 3°C
Dew Point: 27°F , -3°C
Humidity: 46%
Barometer: 29.67 inHg , 1004.7 hPa
Clouds: Mostly cloudy
Visibility: 10 miles , 16 km
Cloud details: Few Clouds 5000 ft
Partly cloudy 6000 ft
Mostly cloudy 10000 ft
2020/04/09 22:54 KVTA 092254Z AUTO 29017G22KT 10SM FEW050 SCT060 BKN100 08/M03 A2967 RMK AO2 PK WND 32036/2200 SLP048 T00831033
 
KTZR - Columbus/Bolton, Ohio, USA
Distance from station: WSW 20mi, 31km
Updated: Thu, 09-Apr-2020 6:45pm EDT
Partly cloudy
Partly cloudy
 Wind from W
Wind: W 20 mph , 31 km/h, Gust: 31 mph , 50 km/h
Temperature: 46°F , 8°C
Wind Chill: 38°F , 3°C
Dew Point: 21°F , -6°C
Humidity: 37%
Barometer: 29.70 inHg , 1005.8 hPa
Clouds: Partly cloudy
Visibility: 10 miles , 16 km
Cloud details: Partly cloudy 7000 ft
Partly cloudy 10000 ft
2020/04/09 22:45 KTZR 092245Z 28017G27KT 10SM SCT070 SCT100 08/M06 A2970
KLHQ - Lancaster, Ohio, USA
Distance from station: SSE 22mi, 36km
Updated: Thu, 09-Apr-2020 6:53pm EDT
Overcast
Overcast
 Wind from WNW
Wind: WNW 17 mph , 28 km/h, Gust: 31 mph , 50 km/h
Temperature: 46°F , 8°C
Wind Chill: 39°F , 4°C
Dew Point: 23°F , -5°C
Humidity: 40%
Barometer: 29.69 inHg , 1005.4 hPa
Clouds: Overcast
Visibility: 10 miles , 16 km
Cloud details: Mostly cloudy 8000 ft
Overcast 12000 ft
2020/04/09 22:53 KLHQ 092253Z AUTO 30015G27KT 10SM BKN080 OVC120 08/M05 A2969 RMK AO2 PK WND 30033/2216 SLP054 T00781050
 
KDLZ - Delaware, Ohio, USA
Distance from station: NW 23mi, 36km
Updated: Thu, 09-Apr-2020 7:15pm EDT
Mostly cloudy
Mostly cloudy
 Wind from W
Wind: W 17 mph , 28 km/h, Gust: 23 mph , 37 km/h
Temperature: 43°F , 6°C
Wind Chill: 35°F , 2°C
Dew Point: 27°F , -3°C
Humidity: 53%
Barometer: 29.70 inHg , 1005.8 hPa
Clouds: Mostly cloudy
Visibility: 10 miles , 16 km
Cloud details: Mostly cloudy 7000 ft
Mostly cloudy 8500 ft
2020/04/09 23:15 KDLZ 092315Z AUTO 27015G20KT 10SM BKN070 BKN085 06/M03 A2970 RMK AO2
K4I3 - Mt Vernon/Knox, Ohio, USA
Distance from station: NE 25mi, 40km
Updated: Thu, 09-Apr-2020 7:16pm EDT
Clear
Clear
 Wind from W
Wind: W 17 mph , 28 km/h, Gust: 24 mph , 39 km/h
Temperature: 43°F , 6°C
Wind Chill: 35°F , 2°C
Dew Point: 21°F , -6°C
Humidity: 42%
Barometer: 29.67 inHg , 1004.7 hPa
Clouds: Clear
Visibility: 10 miles , 16 km
2020/04/09 23:16 K4I3 092316Z AUTO 27015G21KT 10SM CLR 06/M06 A2967 RMK AO2
 
KMRT - Marysville, Ohio, USA
Distance from station: WNW 30mi, 49km
Updated: Thu, 09-Apr-2020 7:16pm EDT
Mostly cloudy
Mostly cloudy
 Wind from WNW
Wind: WNW 23 mph , 37 km/h, Gust: 28 mph , 44 km/h
Temperature: 43°F , 6°C
Wind Chill: 34°F , 1°C
Dew Point: 25°F , -4°C
Humidity: 49%
Barometer: 29.71 inHg , 1006.1 hPa
Clouds: Mostly cloudy
Visibility: 10 miles , 16 km
Cloud details: Partly cloudy 2500 ft
Partly cloudy 3700 ft
Mostly cloudy 4300 ft
2020/04/09 23:16 KMRT 092316Z AUTO 30020G24KT 10SM SCT025 SCT037 BKN043 06/M04 A2971 RMK AO2 T00571041
KMNN - Marion, Ohio, USA
Distance from station: NNW 41mi, 67km
Updated: Thu, 09-Apr-2020 6:53pm EDT
Mostly cloudy
Mostly cloudy
 Wind from WNW
Wind: WNW 21 mph , 33 km/h, Gust: 36 mph , 57 km/h
Temperature: 45°F , 7°C
Wind Chill: 37°F , 3°C
Dew Point: 18°F , -8°C
Humidity: 34%
Barometer: 29.67 inHg , 1004.7 hPa
Clouds: Mostly cloudy
Visibility: 10 miles , 16 km
Cloud details: Partly cloudy 8000 ft
Mostly cloudy 9000 ft
Mostly cloudy 11000 ft
2020/04/09 22:53 KMNN 092253Z AUTO 30018G31KT 10SM SCT080 BKN090 BKN110 07/M08 A2967 RMK AO2 PK WND 30040/2157 SLP052 T00671078
 
KZZV - Zanesville, Ohio, USA
Distance from station: E 49mi, 79km
Updated: Thu, 09-Apr-2020 6:53pm EDT
Overcast
Overcast
 Wind from WNW
Wind: WNW 15 mph , 24 km/h, Gust: 25 mph , 41 km/h
Temperature: 43°F , 6°C
Wind Chill: 36°F , 2°C
Dew Point: 28°F , -2°C
Humidity: 57%
Barometer: 29.68 inHg , 1005.1 hPa
Clouds: Overcast
Visibility: 10 miles , 16 km
Cloud details: Partly cloudy 3900 ft
Mostly cloudy 6500 ft
Overcast 9000 ft
2020/04/09 22:53 KZZV 092253Z AUTO 30013G22KT 10SM SCT039 BKN065 OVC090 06/M02 A2968 RMK AO2 PK WND 32037/2232 RAB34E45 SLP051 P0000 T00561017